createdAt,value
2022-07-30T00:00:25.176Z,994.37
2022-07-30T00:01:22.195Z,994.39
2022-07-30T00:02:22.155Z,994.35
2022-07-30T00:03:22.162Z,994.36
2022-07-30T00:04:22.122Z,994.37
2022-07-30T00:05:22.118Z,994.37
2022-07-30T00:06:22.095Z,994.31
2022-07-30T00:07:22.085Z,994.30
2022-07-30T00:08:22.085Z,994.30
2022-07-30T00:09:22.057Z,994.30
2022-07-30T00:10:22.042Z,994.29
2022-07-30T00:11:25.917Z,994.32
2022-07-30T00:12:22.017Z,994.32
2022-07-30T00:13:22.011Z,994.34
2022-07-30T00:14:21.989Z,994.31
2022-07-30T00:15:21.974Z,994.36
2022-07-30T00:16:22.021Z,994.33
2022-07-30T00:17:21.948Z,994.32
2022-07-30T00:18:22.451Z,994.32
2022-07-30T00:19:21.921Z,994.34
2022-07-30T00:20:21.910Z,994.37
2022-07-30T00:21:35.745Z,994.33
2022-07-30T00:22:21.883Z,994.34
2022-07-30T00:23:21.868Z,994.29
2022-07-30T00:24:21.858Z,994.30
2022-07-30T00:25:21.843Z,994.31
2022-07-30T00:26:21.830Z,994.30
2022-07-30T00:27:21.816Z,994.30
2022-07-30T00:28:21.804Z,994.32
2022-07-30T00:29:21.800Z,994.32
2022-07-30T00:30:21.778Z,994.32
2022-07-30T00:31:21.781Z,994.32
2022-07-30T00:32:21.750Z,994.28
2022-07-30T00:33:21.739Z,994.29
2022-07-30T00:34:21.728Z,994.27
2022-07-30T00:35:21.709Z,994.23
2022-07-30T00:36:21.696Z,994.28
2022-07-30T00:37:21.684Z,994.28
2022-07-30T00:38:21.668Z,994.25
2022-07-30T00:39:21.663Z,994.28
2022-07-30T00:40:21.642Z,994.23
2022-07-30T00:41:21.631Z,994.28
2022-07-30T00:42:21.620Z,994.33
2022-07-30T00:43:21.606Z,994.30
2022-07-30T00:44:21.589Z,994.32
2022-07-30T00:45:21.578Z,994.31
2022-07-30T00:46:21.620Z,994.30
2022-07-30T00:47:21.551Z,994.29
2022-07-30T00:48:21.537Z,994.24
2022-07-30T00:49:21.559Z,994.23
2022-07-30T00:50:21.629Z,994.18
2022-07-30T00:51:21.497Z,994.19
2022-07-30T00:52:21.484Z,994.18
2022-07-30T00:53:21.473Z,994.24
2022-07-30T00:54:21.455Z,994.26
2022-07-30T00:55:21.445Z,994.28
2022-07-30T00:56:21.429Z,994.29
2022-07-30T00:57:21.418Z,994.31
2022-07-30T00:58:21.403Z,994.30
2022-07-30T00:59:21.390Z,994.29
2022-07-30T01:00:21.376Z,994.28
2022-07-30T01:01:21.414Z,994.27
2022-07-30T01:02:21.379Z,994.25
2022-07-30T01:03:21.336Z,994.23
2022-07-30T01:04:21.324Z,994.19
2022-07-30T01:05:21.308Z,994.16
2022-07-30T01:06:21.294Z,994.18
2022-07-30T01:07:21.283Z,994.12
2022-07-30T01:08:21.268Z,994.11
2022-07-30T01:09:21.257Z,994.15
2022-07-30T01:10:21.240Z,994.15
2022-07-30T01:11:21.229Z,994.13
2022-07-30T01:12:21.217Z,994.11
2022-07-30T01:13:21.206Z,994.12
2022-07-30T01:14:21.185Z,994.11
2022-07-30T01:15:21.172Z,994.13
2022-07-30T01:16:21.201Z,994.13
2022-07-30T01:17:21.145Z,994.11
2022-07-30T01:18:21.131Z,994.11
2022-07-30T01:19:21.117Z,994.12
2022-07-30T01:20:21.102Z,994.07
2022-07-30T01:21:21.098Z,994.07
2022-07-30T01:22:21.074Z,994.07
2022-07-30T01:23:21.063Z,994.06
2022-07-30T01:24:21.051Z,994.08
2022-07-30T01:25:21.036Z,994.00
2022-07-30T01:26:21.019Z,994.04
2022-07-30T01:27:21.017Z,994.01
2022-07-30T01:28:20.993Z,994.04
2022-07-30T01:29:20.981Z,993.98
2022-07-30T01:30:20.985Z,994.02
2022-07-30T01:31:21.049Z,994.00
2022-07-30T01:32:20.935Z,994.03
2022-07-30T01:33:20.925Z,994.02
2022-07-30T01:34:20.911Z,994.00
2022-07-30T01:35:20.897Z,994.03
2022-07-30T01:36:20.887Z,994.06
2022-07-30T01:37:20.887Z,994.04
2022-07-30T01:38:20.852Z,994.10
2022-07-30T01:39:20.839Z,994.05
2022-07-30T01:40:20.825Z,994.06
2022-07-30T01:41:20.813Z,994.08
2022-07-30T01:42:20.795Z,994.07
2022-07-30T01:43:20.784Z,994.07
2022-07-30T01:44:24.049Z,994.08
2022-07-30T01:45:20.853Z,994.05
2022-07-30T01:46:20.841Z,994.06
2022-07-30T01:47:20.728Z,994.05
2022-07-30T01:48:20.713Z,994.00
2022-07-30T01:49:20.742Z,994.00
2022-07-30T01:50:20.683Z,993.96
2022-07-30T01:51:20.670Z,993.95
2022-07-30T01:52:20.658Z,993.95
2022-07-30T01:53:20.645Z,994.00
2022-07-30T01:54:20.628Z,994.01
2022-07-30T01:55:20.616Z,993.98
2022-07-30T01:56:24.827Z,994.03
2022-07-30T01:57:20.585Z,994.06
2022-07-30T01:58:20.569Z,994.07
2022-07-30T01:59:20.558Z,994.03
2022-07-30T02:00:20.544Z,994.03
2022-07-30T02:01:20.583Z,994.02
2022-07-30T02:02:20.515Z,994.06
2022-07-30T02:03:21.297Z,994.03
2022-07-30T02:04:20.486Z,994.07
2022-07-30T02:05:20.472Z,994.07
2022-07-30T02:06:20.468Z,994.09
2022-07-30T02:07:20.446Z,994.12
2022-07-30T02:08:20.431Z,994.12
2022-07-30T02:09:20.419Z,994.12
2022-07-30T02:10:20.402Z,994.14
2022-07-30T02:11:20.388Z,994.16
2022-07-30T02:12:20.372Z,994.20
2022-07-30T02:13:20.361Z,994.22
2022-07-30T02:14:20.343Z,994.27
2022-07-30T02:15:20.333Z,994.29
2022-07-30T02:16:20.363Z,994.28
2022-07-30T02:17:20.303Z,994.30
2022-07-30T02:18:21.394Z,994.29
2022-07-30T02:19:20.275Z,994.32
2022-07-30T02:20:20.264Z,994.32
2022-07-30T02:21:20.251Z,994.33
2022-07-30T02:22:20.232Z,994.33
2022-07-30T02:23:20.230Z,994.35
2022-07-30T02:24:20.204Z,994.35
2022-07-30T02:25:20.191Z,994.37
2022-07-30T02:26:20.173Z,994.36
2022-07-30T02:27:20.164Z,994.39
2022-07-30T02:28:20.148Z,994.41
2022-07-30T02:29:20.133Z,994.38
2022-07-30T02:30:20.130Z,994.40
2022-07-30T02:31:20.164Z,994.39
2022-07-30T02:32:20.089Z,994.36
2022-07-30T02:33:20.083Z,994.38
2022-07-30T02:34:20.059Z,994.36
2022-07-30T02:35:20.048Z,994.40
2022-07-30T02:36:20.050Z,994.41
2022-07-30T02:37:20.019Z,994.44
2022-07-30T02:38:20.001Z,994.45
2022-07-30T02:39:20.006Z,994.44
2022-07-30T02:40:19.977Z,994.43
2022-07-30T02:41:19.962Z,994.45
2022-07-30T02:42:19.948Z,994.47
2022-07-30T02:43:19.933Z,994.45
2022-07-30T02:44:19.916Z,994.47
2022-07-30T02:45:19.903Z,994.43
2022-07-30T02:46:19.981Z,994.47
2022-07-30T02:47:19.876Z,994.48
2022-07-30T02:48:34.694Z,994.46
2022-07-30T02:49:19.884Z,994.47
2022-07-30T02:50:19.833Z,994.52
2022-07-30T02:51:19.819Z,994.47
2022-07-30T02:52:19.806Z,994.54
2022-07-30T02:53:19.794Z,994.54
2022-07-30T02:54:19.775Z,994.57
2022-07-30T02:55:19.763Z,994.54
2022-07-30T02:56:19.746Z,994.51
2022-07-30T02:57:19.732Z,994.55
2022-07-30T02:58:19.743Z,994.56
2022-07-30T02:59:19.711Z,994.55
2022-07-30T03:00:19.691Z,994.57
2022-07-30T03:01:19.738Z,994.59
2022-07-30T03:02:26.510Z,994.59
2022-07-30T03:03:19.649Z,994.62
2022-07-30T03:04:19.633Z,994.55
2022-07-30T03:05:19.622Z,994.63
2022-07-30T03:06:19.602Z,994.62
2022-07-30T03:07:19.590Z,994.59
2022-07-30T03:08:19.577Z,994.64
2022-07-30T03:09:19.578Z,994.62
2022-07-30T03:10:19.545Z,994.66
2022-07-30T03:11:19.533Z,994.61
2022-07-30T03:12:19.520Z,994.65
2022-07-30T03:13:19.505Z,994.63
2022-07-30T03:14:19.487Z,994.65
2022-07-30T03:15:19.478Z,994.65
2022-07-30T03:16:19.512Z,994.65
2022-07-30T03:17:19.448Z,994.67
2022-07-30T03:18:19.433Z,994.70
2022-07-30T03:19:19.419Z,994.70
2022-07-30T03:20:19.408Z,994.73
2022-07-30T03:21:19.390Z,994.74
2022-07-30T03:22:19.375Z,994.76
2022-07-30T03:23:19.363Z,994.79
2022-07-30T03:24:19.345Z,994.82
2022-07-30T03:25:19.335Z,994.82
2022-07-30T03:26:19.318Z,994.88
2022-07-30T03:27:19.304Z,994.84
2022-07-30T03:28:19.292Z,994.79
2022-07-30T03:29:21.679Z,994.85
2022-07-30T03:30:19.257Z,994.85
2022-07-30T03:31:19.345Z,994.85
2022-07-30T03:32:19.229Z,994.92
2022-07-30T03:33:19.218Z,994.88
2022-07-30T03:34:19.202Z,994.92
2022-07-30T03:35:20.239Z,994.92
2022-07-30T03:36:19.172Z,994.91
2022-07-30T03:37:19.159Z,994.90
2022-07-30T03:38:19.143Z,994.90
2022-07-30T03:39:19.135Z,994.88
2022-07-30T03:40:19.114Z,994.91
2022-07-30T03:41:19.107Z,994.90
2022-07-30T03:42:19.085Z,994.95
2022-07-30T03:43:33.045Z,994.93
2022-07-30T03:44:19.057Z,994.91
2022-07-30T03:45:19.047Z,994.93
2022-07-30T03:46:19.088Z,994.93
2022-07-30T03:47:19.023Z,994.93
2022-07-30T03:48:19.001Z,994.93
2022-07-30T03:49:19.057Z,994.92
2022-07-30T03:50:18.971Z,994.95
2022-07-30T03:51:18.957Z,994.91
2022-07-30T03:52:18.948Z,994.93
2022-07-30T03:53:18.929Z,994.96
2022-07-30T03:54:18.916Z,994.96
2022-07-30T03:55:18.902Z,994.93
2022-07-30T03:56:18.892Z,994.93
2022-07-30T03:57:20.456Z,994.98
2022-07-30T03:58:18.855Z,994.99
2022-07-30T03:59:18.842Z,995.02
2022-07-30T04:00:18.826Z,995.00
2022-07-30T04:01:18.884Z,994.98
2022-07-30T04:02:18.798Z,994.95
2022-07-30T04:03:18.860Z,994.96
2022-07-30T04:04:18.766Z,994.97
2022-07-30T04:05:18.761Z,995.00
2022-07-30T04:06:18.742Z,994.97
2022-07-30T04:07:18.727Z,994.97
2022-07-30T04:08:18.712Z,995.02
2022-07-30T04:09:18.697Z,994.96
2022-07-30T04:10:18.680Z,994.99
2022-07-30T04:11:18.667Z,994.99
2022-07-30T04:12:18.657Z,995.02
2022-07-30T04:13:18.644Z,994.96
2022-07-30T04:14:18.652Z,994.97
2022-07-30T04:16:15.832Z,994.99
2022-07-30T04:16:41.008Z,994.97
2022-07-30T04:17:18.706Z,995.01
2022-07-30T04:18:18.566Z,994.98
2022-07-30T04:19:18.554Z,995.00
2022-07-30T04:20:18.536Z,995.02
2022-07-30T04:21:18.523Z,995.05
2022-07-30T04:22:18.509Z,995.05
2022-07-30T04:23:18.493Z,995.07
2022-07-30T04:24:18.478Z,995.08
2022-07-30T04:25:24.300Z,995.11
2022-07-30T04:26:18.451Z,995.12
2022-07-30T04:27:18.436Z,995.16
2022-07-30T04:28:18.428Z,995.11
2022-07-30T04:29:23.974Z,995.13
2022-07-30T04:30:18.389Z,995.18
2022-07-30T04:31:18.409Z,995.13
2022-07-30T04:32:18.365Z,995.17
2022-07-30T04:33:18.348Z,995.15
2022-07-30T04:34:18.335Z,995.17
2022-07-30T04:35:23.822Z,995.25
2022-07-30T04:36:18.305Z,995.19
2022-07-30T04:37:18.292Z,995.17
2022-07-30T04:38:18.274Z,995.16
2022-07-30T04:39:18.265Z,995.15
2022-07-30T04:40:18.249Z,995.15
2022-07-30T04:41:18.233Z,995.16
2022-07-30T04:42:18.219Z,995.13
2022-07-30T04:43:18.205Z,995.13
2022-07-30T04:44:18.187Z,995.14
2022-07-30T04:45:18.178Z,995.15
2022-07-30T04:46:18.179Z,995.19
2022-07-30T04:47:18.144Z,995.16
2022-07-30T04:48:18.132Z,995.21
2022-07-30T04:49:18.153Z,995.21
2022-07-30T04:50:18.103Z,995.21
2022-07-30T04:51:18.089Z,995.19
2022-07-30T04:52:18.074Z,995.23
2022-07-30T04:53:18.065Z,995.24
2022-07-30T04:54:18.044Z,995.23
2022-07-30T04:55:18.031Z,995.25
2022-07-30T04:56:18.016Z,995.25
2022-07-30T04:57:18.001Z,995.27
2022-07-30T04:58:17.988Z,995.25
2022-07-30T04:59:17.975Z,995.27
2022-07-30T05:00:17.966Z,995.26
2022-07-30T05:01:17.968Z,995.28
2022-07-30T05:02:18.006Z,995.32
2022-07-30T05:03:17.920Z,995.30
2022-07-30T05:04:17.901Z,995.29
2022-07-30T05:05:17.910Z,995.34
2022-07-30T05:06:17.871Z,995.34
2022-07-30T05:07:17.856Z,995.34
2022-07-30T05:08:17.843Z,995.38
2022-07-30T05:09:17.828Z,995.40
2022-07-30T05:10:17.815Z,995.43
2022-07-30T05:11:17.799Z,995.45
2022-07-30T05:12:17.786Z,995.46
2022-07-30T05:13:17.772Z,995.46
2022-07-30T05:14:17.758Z,995.44
2022-07-30T05:15:17.745Z,995.45
2022-07-30T05:16:17.891Z,995.46
2022-07-30T05:17:17.720Z,995.42
2022-07-30T05:18:17.702Z,995.40
2022-07-30T05:19:17.686Z,995.40
2022-07-30T05:20:17.674Z,995.46
2022-07-30T05:21:17.659Z,995.46
2022-07-30T05:22:17.646Z,995.47
2022-07-30T05:23:17.632Z,995.48
2022-07-30T05:24:17.617Z,995.49
2022-07-30T05:25:17.602Z,995.47
2022-07-30T05:26:17.594Z,995.49
2022-07-30T05:27:17.577Z,995.49
2022-07-30T05:28:17.564Z,995.52
2022-07-30T05:29:19.453Z,995.54
2022-07-30T05:30:17.532Z,995.54
2022-07-30T05:31:17.589Z,995.50
2022-07-30T05:32:17.506Z,995.47
2022-07-30T05:33:17.490Z,995.47
2022-07-30T05:34:17.480Z,995.53
2022-07-30T05:35:17.462Z,995.50
2022-07-30T05:36:17.449Z,995.54
2022-07-30T05:37:17.437Z,995.52
2022-07-30T05:38:17.423Z,995.54
2022-07-30T05:39:17.408Z,995.54
2022-07-30T05:40:17.394Z,995.54
2022-07-30T05:41:30.690Z,995.57
2022-07-30T05:42:17.366Z,995.55
2022-07-30T05:43:17.365Z,995.57
2022-07-30T05:44:21.977Z,995.62
2022-07-30T05:45:17.350Z,995.56
2022-07-30T05:46:17.373Z,995.56
2022-07-30T05:47:17.300Z,995.55
2022-07-30T05:48:17.290Z,995.57
2022-07-30T05:49:17.337Z,995.58
2022-07-30T05:50:17.260Z,995.58
2022-07-30T05:51:17.248Z,995.59
2022-07-30T05:52:17.232Z,995.58
2022-07-30T05:53:17.221Z,995.60
2022-07-30T05:54:17.207Z,995.61
2022-07-30T05:55:17.189Z,995.63
2022-07-30T05:56:17.178Z,995.61
2022-07-30T05:57:17.164Z,995.65
2022-07-30T05:58:17.151Z,995.64
2022-07-30T05:59:17.150Z,995.66
2022-07-30T06:00:17.129Z,995.62
2022-07-30T06:01:17.160Z,995.63
2022-07-30T06:02:17.098Z,995.63
2022-07-30T06:03:17.085Z,995.69
2022-07-30T06:04:17.120Z,995.65
2022-07-30T06:05:17.058Z,995.64
2022-07-30T06:06:22.427Z,995.64
2022-07-30T06:07:17.031Z,995.69
2022-07-30T06:08:17.021Z,995.65
2022-07-30T06:09:17.011Z,995.69
2022-07-30T06:10:16.991Z,995.72
2022-07-30T06:11:16.978Z,995.70
2022-07-30T06:12:16.965Z,995.72
2022-07-30T06:13:16.980Z,995.72
2022-07-30T06:14:16.938Z,995.74
2022-07-30T06:15:20.556Z,995.76
2022-07-30T06:16:16.975Z,995.77
2022-07-30T06:17:16.899Z,995.79
2022-07-30T06:18:16.889Z,995.78
2022-07-30T06:19:19.764Z,995.80
2022-07-30T06:20:26.068Z,995.81
2022-07-30T06:22:25.820Z,995.85
2022-07-30T06:23:21.327Z,995.85
2022-07-30T06:25:25.880Z,995.86
2022-07-30T06:26:25.771Z,995.85
2022-07-30T06:28:39.402Z,995.87
2022-07-30T06:29:31.200Z,995.91
2022-07-30T06:31:24.126Z,995.99
2022-07-30T06:32:24.086Z,995.93
2022-07-30T06:34:28.056Z,995.93
2022-07-30T06:35:28.016Z,995.94
2022-07-30T06:37:58.738Z,995.95
2022-07-30T06:38:33.461Z,995.95
2022-07-30T06:40:37.907Z,995.90
2022-07-30T06:41:37.888Z,995.92
2022-07-30T06:43:42.376Z,995.89
2022-07-30T06:44:42.343Z,995.92
2022-07-30T06:46:46.371Z,995.86
2022-07-30T06:47:46.312Z,995.91
2022-07-30T06:49:50.287Z,995.93
2022-07-30T06:50:50.256Z,995.98
2022-07-30T06:52:54.749Z,996.00
2022-07-30T06:53:54.711Z,996.02
2022-07-30T06:56:00.573Z,995.96
2022-07-30T06:56:59.435Z,995.96
2022-07-30T06:59:03.126Z,995.95
2022-07-30T07:00:03.098Z,995.95
2022-07-30T07:01:56.060Z,996.01
2022-07-30T07:02:55.982Z,995.98
2022-07-30T07:05:00.459Z,995.99
2022-07-30T07:06:00.426Z,995.97
2022-07-30T07:08:04.898Z,995.95
2022-07-30T07:09:04.860Z,995.92
2022-07-30T07:11:09.352Z,995.97
2022-07-30T07:12:09.335Z,996.01
2022-07-30T07:14:13.795Z,996.04
2022-07-30T07:15:13.765Z,996.04
2022-07-30T07:17:19.315Z,996.06
2022-07-30T07:18:19.207Z,996.03
2022-07-30T07:20:23.192Z,996.09
2022-07-30T07:21:23.163Z,996.06
2022-07-30T07:23:41.797Z,996.07
2022-07-30T07:24:27.589Z,996.06
2022-07-30T07:26:31.555Z,996.05
2022-07-30T07:27:31.532Z,996.03
2022-07-30T07:29:35.530Z,996.06
2022-07-30T07:30:35.602Z,996.08
2022-07-30T07:32:39.502Z,996.04
2022-07-30T07:33:39.493Z,996.01
2022-07-30T07:35:49.718Z,996.10
2022-07-30T07:36:43.920Z,996.03
2022-07-30T07:38:47.928Z,996.04
2022-07-30T07:39:47.900Z,996.06
2022-07-30T07:41:48.769Z,996.03
2022-07-30T07:42:42.269Z,996.05
2022-07-30T07:44:46.775Z,996.03
2022-07-30T07:45:46.757Z,996.08
2022-07-30T07:47:51.973Z,996.07
2022-07-30T07:48:50.725Z,996.06
2022-07-30T07:50:59.647Z,996.06
2022-07-30T07:51:54.629Z,996.07
2022-07-30T07:54:19.797Z,996.05
2022-07-30T07:54:58.582Z,996.08
2022-07-30T07:57:04.267Z,996.11
2022-07-30T07:58:02.544Z,996.03
2022-07-30T08:00:08.026Z,996.08
2022-07-30T08:01:08.049Z,996.08
2022-07-30T08:03:11.990Z,996.05
2022-07-30T08:04:11.965Z,996.10
2022-07-30T08:06:16.462Z,996.09
2022-07-30T08:07:16.434Z,996.08
2022-07-30T08:09:20.456Z,996.15
2022-07-30T08:10:20.480Z,996.13
2022-07-30T08:12:25.355Z,996.09
2022-07-30T08:13:48.835Z,996.14
2022-07-30T08:15:30.769Z,996.15
2022-07-30T08:16:30.772Z,996.15
2022-07-30T08:18:34.748Z,996.15
2022-07-30T08:19:34.714Z,996.15
2022-07-30T08:21:29.120Z,996.15
2022-07-30T08:22:29.089Z,996.11
2022-07-30T08:24:33.078Z,996.12
2022-07-30T08:25:33.053Z,996.14
2022-07-30T08:27:37.548Z,996.11
2022-07-30T08:28:37.534Z,996.11
2022-07-30T08:30:43.024Z,996.14
2022-07-30T08:31:42.986Z,996.15
2022-07-30T08:33:47.009Z,996.14
2022-07-30T08:34:46.951Z,996.13
2022-07-30T08:36:51.443Z,996.17
2022-07-30T08:37:51.427Z,996.15
2022-07-30T08:39:56.899Z,996.12
2022-07-30T08:40:56.873Z,996.12
2022-07-30T08:43:01.353Z,996.13
2022-07-30T08:44:01.346Z,996.10
2022-07-30T08:46:05.850Z,996.08
2022-07-30T08:47:05.806Z,996.12
2022-07-30T08:49:11.383Z,996.10
2022-07-30T08:50:09.771Z,996.13
2022-07-30T08:52:14.799Z,996.17
2022-07-30T08:53:14.788Z,996.14
2022-07-30T08:55:18.792Z,996.18
2022-07-30T08:56:18.763Z,996.14
2022-07-30T08:58:22.763Z,996.12
2022-07-30T08:59:22.726Z,996.16
2022-07-30T09:01:16.139Z,996.17
2022-07-30T09:02:16.112Z,996.16
2022-07-30T09:04:21.590Z,996.14
2022-07-30T09:05:21.560Z,996.11
2022-07-30T09:07:25.550Z,996.15
2022-07-30T09:08:25.538Z,996.19
2022-07-30T09:10:30.032Z,996.20
2022-07-30T09:11:30.006Z,996.18
2022-07-30T09:13:34.036Z,996.16
2022-07-30T09:14:34.004Z,996.20
2022-07-30T09:16:39.487Z,996.22
2022-07-30T09:17:39.462Z,996.21
2022-07-30T09:19:43.468Z,996.21
2022-07-30T09:20:43.440Z,996.21
2022-07-30T09:22:47.941Z,996.23
2022-07-30T09:23:51.114Z,996.20
2022-07-30T09:25:51.913Z,996.23
2022-07-30T09:26:51.897Z,996.19
2022-07-30T09:28:57.367Z,996.25
2022-07-30T09:29:57.345Z,996.24
2022-07-30T09:31:50.767Z,996.23
2022-07-30T09:32:50.757Z,996.24
2022-07-30T09:34:54.754Z,996.20
2022-07-30T09:35:54.731Z,996.21
2022-07-30T09:38:02.955Z,996.26
2022-07-30T09:38:59.218Z,996.20
2022-07-30T09:41:12.212Z,996.19
2022-07-30T09:42:04.960Z,996.19
2022-07-30T09:44:09.199Z,996.10
2022-07-30T09:45:09.165Z,996.18
2022-07-30T09:47:14.641Z,996.16
2022-07-30T09:48:14.629Z,996.18
2022-07-30T09:50:29.966Z,996.10
2022-07-30T09:51:24.005Z,996.09
2022-07-30T09:53:24.573Z,996.09
2022-07-30T09:54:25.336Z,996.06
2022-07-30T09:56:29.962Z,996.14
2022-07-30T09:57:29.012Z,996.14
2022-07-30T09:59:35.062Z,996.15
2022-07-30T10:00:32.999Z,996.12
2022-07-30T10:02:37.480Z,996.06
2022-07-30T10:03:42.287Z,996.06
2022-07-30T10:05:41.454Z,996.12
2022-07-30T10:06:42.041Z,996.10
2022-07-30T10:08:46.473Z,996.09
2022-07-30T10:09:47.042Z,996.12
2022-07-30T10:11:40.347Z,996.15
2022-07-30T10:12:40.307Z,996.14
2022-07-30T10:14:44.784Z,996.11
2022-07-30T10:15:44.761Z,996.15
2022-07-30T10:17:49.236Z,996.15
2022-07-30T10:18:49.227Z,996.08
2022-07-30T10:20:53.749Z,996.04
2022-07-30T10:21:53.704Z,996.09
2022-07-30T10:23:57.776Z,996.05
2022-07-30T10:24:57.731Z,996.08
2022-07-30T10:27:06.171Z,996.01
2022-07-30T10:28:03.309Z,995.98
2022-07-30T10:30:08.686Z,996.00
2022-07-30T10:31:47.183Z,995.98
2022-07-30T10:33:34.614Z,995.99
2022-07-30T10:34:13.143Z,995.97
2022-07-30T10:36:17.643Z,995.96
2022-07-30T10:37:17.646Z,995.98
2022-07-30T10:39:23.137Z,995.92
2022-07-30T10:40:24.041Z,995.94
2022-07-30T10:42:28.577Z,995.96
2022-07-30T10:43:31.708Z,995.94
2022-07-30T10:45:34.042Z,995.97
2022-07-30T10:46:34.028Z,995.99
2022-07-30T10:48:38.021Z,995.94
2022-07-30T10:49:41.006Z,995.96
2022-07-30T10:51:34.402Z,995.90
2022-07-30T10:52:30.920Z,995.90
2022-07-30T10:54:39.269Z,995.91
2022-07-30T10:55:38.934Z,995.88
2022-07-30T10:57:41.868Z,995.81
2022-07-30T10:58:41.859Z,995.78
2022-07-30T11:00:46.146Z,995.76
2022-07-30T11:01:47.531Z,995.80
2022-07-30T11:02:46.098Z,995.78
2022-07-30T11:03:46.093Z,995.78
2022-07-30T11:04:46.086Z,995.76
2022-07-30T11:05:46.131Z,995.78
2022-07-30T11:06:46.083Z,995.75
2022-07-30T11:07:47.327Z,995.79
2022-07-30T11:08:48.199Z,995.80
2022-07-30T11:10:04.963Z,995.74
2022-07-30T11:10:46.128Z,995.72
2022-07-30T11:12:01.098Z,995.72
2022-07-30T11:12:46.062Z,995.78
2022-07-30T11:13:46.057Z,995.76
2022-07-30T11:14:46.053Z,995.79
2022-07-30T11:15:46.052Z,995.75
2022-07-30T11:16:46.049Z,995.80
2022-07-30T11:17:46.047Z,995.81
2022-07-30T11:18:46.045Z,995.78
2022-07-30T11:19:55.709Z,995.82
2022-07-30T11:20:48.769Z,995.81
2022-07-30T11:21:46.037Z,995.69
2022-07-30T11:22:46.037Z,995.75
2022-07-30T11:23:46.033Z,995.83
2022-07-30T11:24:46.031Z,995.80
2022-07-30T11:25:52.038Z,995.78
2022-07-30T11:26:46.029Z,995.79
2022-07-30T11:27:46.134Z,995.69
2022-07-30T11:28:46.030Z,995.73
2022-07-30T11:29:50.784Z,995.74
2022-07-30T11:30:46.029Z,995.76
2022-07-30T11:31:56.766Z,995.76
2022-07-30T11:32:48.534Z,995.72
2022-07-30T11:33:46.023Z,995.74
2022-07-30T11:34:46.019Z,995.73
2022-07-30T11:35:46.018Z,995.73
2022-07-30T11:36:47.552Z,995.69
2022-07-30T11:37:51.974Z,995.71
2022-07-30T11:38:46.013Z,995.70
2022-07-30T11:39:46.013Z,995.64
2022-07-30T11:40:46.013Z,995.65
2022-07-30T11:41:46.012Z,995.63
2022-07-30T11:42:46.007Z,995.62
2022-07-30T11:43:46.013Z,995.58
2022-07-30T11:44:46.007Z,995.58
2022-07-30T11:45:46.010Z,995.62
2022-07-30T11:46:46.007Z,995.62
2022-07-30T11:47:46.006Z,995.64
2022-07-30T11:48:46.064Z,995.63
2022-07-30T11:49:46.004Z,995.63
2022-07-30T11:50:45.999Z,995.61
2022-07-30T11:51:46.001Z,995.60
2022-07-30T11:52:45.998Z,995.61
2022-07-30T11:53:46.002Z,995.64
2022-07-30T11:54:45.998Z,995.65
2022-07-30T11:55:45.996Z,995.63
2022-07-30T11:56:45.998Z,995.58
2022-07-30T11:57:45.996Z,995.59
2022-07-30T11:58:45.994Z,995.59
2022-07-30T11:59:45.993Z,995.66
2022-07-30T12:00:46.004Z,995.64
2022-07-30T12:01:45.993Z,995.68
2022-07-30T12:02:46.046Z,995.65
2022-07-30T12:03:45.992Z,995.62
2022-07-30T12:04:45.993Z,995.56
2022-07-30T12:05:45.992Z,995.55
2022-07-30T12:06:45.991Z,995.55
2022-07-30T12:07:45.992Z,995.56
2022-07-30T12:08:45.986Z,995.53
2022-07-30T12:09:45.993Z,995.53
2022-07-30T12:10:45.991Z,995.57
2022-07-30T12:11:45.987Z,995.55
2022-07-30T12:12:45.986Z,995.49
2022-07-30T12:13:46.303Z,995.47
2022-07-30T12:14:45.987Z,995.53
2022-07-30T12:15:45.987Z,995.63
2022-07-30T12:16:45.985Z,995.56
2022-07-30T12:17:46.007Z,995.65
2022-07-30T12:18:45.991Z,995.60
2022-07-30T12:19:47.421Z,995.60
2022-07-30T12:20:45.984Z,995.52
2022-07-30T12:21:49.598Z,995.52
2022-07-30T12:22:45.989Z,995.51
2022-07-30T12:23:45.984Z,995.53
2022-07-30T12:24:45.981Z,995.54
2022-07-30T12:25:47.780Z,995.60
2022-07-30T12:26:45.979Z,995.54
2022-07-30T12:27:49.184Z,995.52
2022-07-30T12:28:45.977Z,995.49
2022-07-30T12:29:45.980Z,995.48
2022-07-30T12:30:45.977Z,995.47
2022-07-30T12:31:45.977Z,995.46
2022-07-30T12:32:45.977Z,995.42
2022-07-30T12:33:45.975Z,995.49
2022-07-30T12:34:45.973Z,995.52
2022-07-30T12:35:45.978Z,995.52
2022-07-30T12:36:45.974Z,995.46
2022-07-30T12:37:45.975Z,995.53
2022-07-30T12:38:45.980Z,995.46
2022-07-30T12:39:45.974Z,995.44
2022-07-30T12:40:56.071Z,995.48
2022-07-30T12:42:52.904Z,995.46
2022-07-30T12:43:52.868Z,995.48
2022-07-30T12:44:52.906Z,995.47
2022-07-30T12:45:54.363Z,995.50
2022-07-30T12:46:52.867Z,995.47
2022-07-30T12:47:52.851Z,995.41
2022-07-30T12:48:52.907Z,995.46
2022-07-30T12:49:53.203Z,995.46
2022-07-30T12:50:52.852Z,995.40
2022-07-30T12:51:52.849Z,995.45
2022-07-30T12:52:52.852Z,995.44
2022-07-30T12:53:52.851Z,995.41
2022-07-30T12:54:52.853Z,995.44
2022-07-30T12:55:52.851Z,995.37
2022-07-30T12:56:52.855Z,995.38
2022-07-30T12:57:52.855Z,995.37
2022-07-30T12:58:52.855Z,995.35
2022-07-30T12:59:52.861Z,995.33
2022-07-30T13:00:52.885Z,995.29
2022-07-30T13:01:52.901Z,995.27
2022-07-30T13:02:52.856Z,995.32
2022-07-30T13:03:52.856Z,995.27
2022-07-30T13:05:01.101Z,995.31
2022-07-30T13:05:55.673Z,995.24
2022-07-30T13:06:52.860Z,995.25
2022-07-30T13:07:52.857Z,995.23
2022-07-30T13:08:52.867Z,995.22
2022-07-30T13:09:52.861Z,995.24
2022-07-30T13:10:52.868Z,995.20
2022-07-30T13:11:52.861Z,995.19
2022-07-30T13:12:52.864Z,995.19
2022-07-30T13:13:52.861Z,995.14
2022-07-30T13:14:52.863Z,995.16
2022-07-30T13:15:54.210Z,995.21
2022-07-30T13:16:52.868Z,995.23
2022-07-30T13:17:52.857Z,995.10
2022-07-30T13:18:52.860Z,995.15
2022-07-30T13:19:52.860Z,995.17
2022-07-30T13:20:52.860Z,995.18
2022-07-30T13:21:52.857Z,995.19
2022-07-30T13:22:52.865Z,995.19
2022-07-30T13:23:52.852Z,995.17
2022-07-30T13:24:52.852Z,995.14
2022-07-30T13:25:52.858Z,995.19
2022-07-30T13:26:52.860Z,995.18
2022-07-30T13:27:52.849Z,995.16
2022-07-30T13:28:52.852Z,995.24
2022-07-30T13:29:52.848Z,995.18
2022-07-30T13:30:52.849Z,995.20
2022-07-30T13:31:52.847Z,995.22
2022-07-30T13:32:52.847Z,995.27
2022-07-30T13:33:52.846Z,995.28
2022-07-30T13:34:52.849Z,995.31
2022-07-30T13:35:52.843Z,995.28
2022-07-30T13:36:52.845Z,995.27
2022-07-30T13:37:52.842Z,995.25
2022-07-30T13:38:52.842Z,995.29
2022-07-30T13:39:52.840Z,995.25
2022-07-30T13:40:52.847Z,995.24
2022-07-30T13:41:52.837Z,995.22
2022-07-30T13:42:52.844Z,995.22
2022-07-30T13:43:52.841Z,995.21
2022-07-30T13:44:52.837Z,995.17
2022-07-30T13:45:52.836Z,995.17
2022-07-30T13:46:52.842Z,995.14
2022-07-30T13:47:52.834Z,995.19
2022-07-30T13:48:52.859Z,995.17
2022-07-30T13:49:52.835Z,995.10
2022-07-30T13:50:52.834Z,995.08
2022-07-30T13:51:52.830Z,995.03
2022-07-30T13:52:52.830Z,995.11
2022-07-30T13:53:52.833Z,995.07
2022-07-30T13:54:52.843Z,995.06
2022-07-30T13:55:52.828Z,995.13
2022-07-30T13:56:52.830Z,995.12
2022-07-30T13:57:52.826Z,995.08
2022-07-30T13:58:52.827Z,995.13
2022-07-30T13:59:52.824Z,995.06
2022-07-30T14:00:52.828Z,995.08
2022-07-30T14:01:52.886Z,995.04
2022-07-30T14:02:52.823Z,995.03
2022-07-30T14:03:52.822Z,994.99
2022-07-30T14:04:52.825Z,995.09
2022-07-30T14:05:52.820Z,995.02
2022-07-30T14:06:52.824Z,994.99